Terminal Aerodrome Forecast
Issued by NWS Sioux Falls, SD

Home | Current Version | Previous Version | Graphics & Text | Print | Product List | Glossary Off
Versions: 1 2 3 4 5 6 7 8 9 10 11 12 13 14 15 16 17 18 19

889
FTUS43 KFSD 170907 AAA
TAFFSD
TAF AMD
KFSD 170907Z 1709/1806 20009KT 4SM -SN OVC040
      TEMPO 1709/1712 2SM -SN OVC030
     FM171200 23004KT P6SM BKN150
     FM171700 29013G18KT P6SM BKN200
     FM180000 29009KT P6SM FEW250
     FM180300 17005KT P6SM FEW250=

USA.gov is the U.S. government's official web portal to all federal, state and local government web resources and services.